Somerton, AZ

10:59 AM MST on August 27, 2014 (GMT -0700)
Caballero Park | Change Station
CLOSE
Current Station
Personal Weather Station
Location: Yuma, AZ
Elevation: 200 ft
Nearby Weather Stations

Elev 200 ft 32.67 °N, 114.63 °W | Updated 12 minutes ago

Clear
Clear
97.5 °F
Feels Like 97 °F
N
4.7
Wind Variable Wind from West

Today
High -- | Low -- °F
--% Chance of Precip.
Yesterday
High -- | Low -- °F
Precip. -- in
6:10 AM 7:09 PM
Waxing Crescent, 4% visible
Pressure 29.96 in
Visibility 10.0 miles
Clouds Clear
Heat Index 97 °F
Dew Point 59 °F
Humidity 28%
Rainfall 0.00 in
Snow Depth Not available.
UV 7 out of 12
Pollen 7.10 out of 12
Air Quality Not available.
Flu Activity Not available.
METAR KNYL 271657Z 30003KT 10SM CLR 35/09 A2996 RMK AO2 SLP143 T03500089

More Conditions Fewer Conditions

Pressure 29.96 in
Visibility 10.0 miles
Clouds Clear
Heat Index 97 °F
Dew Point 59 °F
Humidity 28%
Rainfall 0.00 in
Snow Depth Not available.
UV 7 out of 12
Pollen 7.10 out of 12
Air Quality Not available.
Flu Activity Not available.
METAR KNYL 271657Z 30003KT 10SM CLR 35/09 A2996 RMK AO2 SLP143 T03500089

More Conditions Fewer Conditions

10-Day Weather Forecast

Almanac

Astronomy

Aug. 27, 2014 Rise Set
Actual Time 6:10 AM MST 7:09 PM MST
Civil Twilight 5:45 AM MST 7:34 PM MST
Nautical Twilight 5:15 AM MST 8:04 PM MST
Astronomical Twilight 4:44 AM MST 8:35 PM MST
Moon 8:01 AM MST 8:14 PM MST
Length of Visible Light 13h 49m
Length of Day
12h 59m
Tomorrow will be 1m 53s shorter.
Waxing Crescent, 4% of the Moon is Illuminated
Today
Waxing Crescent
Sep 2
First Quarter
Sep 8
Full
Sep 15
Last Quarter
Sep 24
New

Today's Extremes

State Highs State Lows

Community

WunderPhotos

Upload Photos

1,747,736 photos uploaded!

Nearby

Snow Depth

Station Depth Elevation
Workman Creek 1 in 6900 ft
Promontory 0 in 7930 ft
Snowslide Canyon 0 in 9730 ft
Heber 0 in 7640 ft
Wildcat 0 in 7850 ft

Earthquake Activity

City Distance Mag. Time & Date
Progreso, Mexico 60 miles 2.6 10:55 PM MST
2014-08-25
Minimum magnitude displayed is 2.5.

Coastal Water Temperatures

Place Temperature
No Stations Reporting

Nearby Weather Stations